Time;durP1;ratioP1;P1;durP2;ratioP2;P2;SDS_P1;SDS_P2;PMS_P1;PMS_P2;Temp;Humidity;BMP_temperature;BMP_pressure;BME280_temperature;BME280_humidity;BME280_pressure;Samples;Min_cycle;Max_cycle;Signal;HPM_P1;HPM_P2
2023/09/05 00:00:10;;;;;;;7.22;5.35;;;;;;;17.14;100.00;99385.59;5069544;28;20036;-86
2023/09/05 00:02:37;;;;;;;7.45;4.97;;;;;;;17.02;100.00;99384.63;5082531;28;20135;-85
2023/09/05 00:05:05;;;;;;;4.68;4.25;;;;;;;17.04;100.00;99389.91;5109714;28;20026;-86
2023/09/05 00:07:31;;;;;;;13.45;5.80;;;;;;;17.13;100.00;99393.25;5079461;28;20020;-86
2023/09/05 00:09:58;;;;;;;8.35;5.05;;;;;;;17.17;100.00;99380.00;5086998;28;20024;-86
2023/09/05 00:12:23;;;;;;;5.38;4.40;;;;;;;17.51;100.00;99408.31;5090343;28;20024;-85
2023/09/05 00:14:49;;;;;;;5.05;4.50;;;;;;;17.56;100.00;99403.50;5090413;28;20420;-86
2023/09/05 00:17:14;;;;;;;8.70;4.40;;;;;;;17.64;98.85;99402.41;5080395;28;20436;-86
2023/09/05 00:19:40;;;;;;;5.80;4.57;;;;;;;17.53;99.00;99382.47;5070024;28;20052;-86
2023/09/05 00:22:05;;;;;;;5.13;4.63;;;;;;;17.64;100.00;99393.94;5070133;28;20023;-86
2023/09/05 00:24:36;;;;;;;6.80;4.60;;;;;;;17.70;100.00;99386.72;5072434;28;20059;-86
2023/09/05 00:27:05;;;;;;;7.45;4.60;;;;;;;17.77;99.11;99383.97;5089984;28;20496;-86
2023/09/05 00:29:31;;;;;;;7.33;4.60;;;;;;;17.80;99.44;99400.19;5090311;28;20024;-86
2023/09/05 00:31:59;;;;;;;6.50;4.85;;;;;;;17.76;98.86;99385.19;5089394;28;20016;-86
2023/09/05 00:34:34;;;;;;;7.00;5.00;;;;;;;17.74;99.11;99375.44;5071909;28;20063;-86
2023/09/05 00:37:01;;;;;;;7.05;5.38;;;;;;;17.74;99.49;99386.75;5089162;28;20033;-86
2023/09/05 00:39:27;;;;;;;5.45;4.95;;;;;;;17.74;100.00;99403.72;5078310;28;20106;-86
2023/09/05 00:41:55;;;;;;;15.45;5.90;;;;;;;17.78;100.00;99411.06;5070723;28;20032;-86
2023/09/05 00:44:21;;;;;;;6.35;4.60;;;;;;;17.72;100.00;99406.13;5069943;28;20085;-85
2023/09/05 00:46:47;;;;;;;5.75;4.70;;;;;;;17.69;100.00;99402.06;5070215;28;20020;-86
2023/09/05 00:49:17;;;;;;;7.57;5.05;;;;;;;17.78;100.00;99381.94;5079138;28;20031;-86
2023/09/05 00:51:49;;;;;;;6.22;5.28;;;;;;;17.65;100.00;99367.28;5085800;28;20024;-86
2023/09/05 00:54:14;;;;;;;8.60;4.85;;;;;;;17.87;100.00;99376.00;5069876;28;20024;-86
2023/09/05 00:56:40;;;;;;;5.90;5.03;;;;;;;17.89;100.00;99382.09;5072878;28;20463;-86
2023/09/05 00:59:06;;;;;;;7.28;4.82;;;;;;;17.90;99.57;99372.41;5069907;28;20089;-85
2023/09/05 01:01:31;;;;;;;12.57;5.53;;;;;;;17.88;99.97;99375.59;5070970;28;20550;-86
2023/09/05 01:03:57;;;;;;;10.88;5.50;;;;;;;17.80;100.00;99352.09;5069224;28;20020;-86
2023/09/05 01:07:01;;;;;;;6.70;4.95;;;;;;;17.69;100.00;99359.63;5070864;28;20020;-86
2023/09/05 01:09:57;;;;;;;8.63;5.07;;;;;;;17.57;99.94;99351.41;5067691;28;20071;-86
2023/09/05 01:12:24;;;;;;;7.47;5.45;;;;;;;17.41;100.00;99346.78;5069576;28;20024;-86
2023/09/05 01:14:49;;;;;;;9.23;5.78;;;;;;;17.33;100.00;99351.53;5071916;28;20028;-86
2023/09/05 01:17:15;;;;;;;6.95;5.78;;;;;;;17.18;100.00;99344.06;5088406;28;20027;-86
2023/09/05 01:19:41;;;;;;;6.78;5.78;;;;;;;17.06;100.00;99336.66;5089724;28;20511;-86
2023/09/05 01:22:15;;;;;;;10.27;5.70;;;;;;;17.17;100.00;99354.56;5082874;28;20021;-86
2023/09/05 01:24:41;;;;;;;8.05;6.30;;;;;;;17.01;100.00;99351.09;5087338;28;20075;-86
2023/09/05 01:27:11;;;;;;;6.68;5.65;;;;;;;17.00;100.00;99344.63;5080198;28;20024;-86
2023/09/05 01:29:39;;;;;;;6.20;5.40;;;;;;;16.98;100.00;99347.00;5094656;28;20545;-86
2023/09/05 01:32:08;;;;;;;7.50;6.22;;;;;;;16.91;100.00;99344.06;5093710;28;20026;-86
2023/09/05 01:34:33;;;;;;;9.02;5.63;;;;;;;16.81;100.00;99348.38;5093309;28;20028;-86
2023/09/05 01:36:59;;;;;;;7.22;5.72;;;;;;;16.96;100.00;99355.06;5086129;28;20047;-86
2023/09/05 01:39:25;;;;;;;5.82;5.22;;;;;;;16.90;100.00;99346.09;5073848;28;20028;-86
2023/09/05 01:41:51;;;;;;;8.55;5.85;;;;;;;16.80;100.00;99341.09;5093109;28;20019;-86
2023/09/05 01:44:16;;;;;;;6.18;5.57;;;;;;;16.74;100.00;99328.47;5094423;28;20099;-86
2023/09/05 01:46:42;;;;;;;9.00;6.13;;;;;;;16.89;100.00;99333.13;5088537;28;20016;-86
2023/09/05 01:49:08;;;;;;;7.93;5.90;;;;;;;16.94;100.00;99335.66;5084937;28;20485;-85
2023/09/05 01:51:33;;;;;;;6.85;5.57;;;;;;;17.11;100.00;99350.44;5073844;28;20097;-86
2023/09/05 01:53:59;;;;;;;8.50;5.95;;;;;;;17.22;100.00;99353.41;5082596;28;20489;-86
2023/09/05 01:56:24;;;;;;;6.03;4.88;;;;;;;17.12;100.00;99352.06;5088047;28;20028;-86
2023/09/05 01:58:50;;;;;;;6.78;4.65;;;;;;;16.97;100.00;99351.81;5072650;28;20585;-86
2023/09/05 02:01:15;;;;;;;10.82;5.55;;;;;;;17.00;100.00;99343.81;5072562;28;20019;-86
2023/09/05 02:03:41;;;;;;;5.40;4.78;;;;;;;17.00;100.00;99358.75;5072776;28;20107;-86
2023/09/05 02:06:07;;;;;;;7.68;4.65;;;;;;;16.90;100.00;99353.72;5072524;28;20013;-86
2023/09/05 02:08:36;;;;;;;6.15;4.70;;;;;;;16.88;100.00;99351.28;5090730;28;20046;-86
2023/09/05 02:11:03;;;;;;;5.18;4.18;;;;;;;16.76;100.00;99346.69;5092984;28;20043;-86
2023/09/05 02:13:29;;;;;;;8.10;5.00;;;;;;;16.82;100.00;99347.16;5091159;28;20028;-86
2023/09/05 02:15:55;;;;;;;5.07;4.50;;;;;;;16.93;100.00;99347.31;5092522;28;20035;-86
2023/09/05 02:18:20;;;;;;;8.27;4.75;;;;;;;16.88;100.00;99339.19;5075095;28;20124;-86
2023/09/05 02:20:46;;;;;;;13.02;4.85;;;;;;;16.79;100.00;99340.25;5072221;28;20031;-86
2023/09/05 02:23:11;;;;;;;5.05;4.53;;;;;;;16.82;100.00;99355.66;5072271;28;20025;-86
2023/09/05 02:25:37;;;;;;;11.05;4.80;;;;;;;16.75;100.00;99345.06;5072329;28;20028;-86
2023/09/05 02:28:03;;;;;;;6.78;5.13;;;;;;;16.69;100.00;99353.03;5071513;28;20032;-86
2023/09/05 02:30:30;;;;;;;8.43;4.82;;;;;;;16.66;100.00;99344.50;5072179;28;20488;-86
2023/09/05 02:32:56;;;;;;;6.45;4.35;;;;;;;16.81;100.00;99349.16;5083175;28;20028;-86
2023/09/05 02:35:23;;;;;;;5.25;4.38;;;;;;;16.91;100.00;99363.84;5093222;28;20016;-86
2023/09/05 02:37:50;;;;;;;6.43;4.88;;;;;;;16.84;100.00;99358.91;5090994;28;20024;-86
2023/09/05 02:40:16;;;;;;;10.48;4.50;;;;;;;16.67;100.00;99321.53;5095431;28;20026;-86
2023/09/05 02:42:42;;;;;;;7.65;4.53;;;;;;;16.68;100.00;99334.47;5095324;28;20028;-86
2023/09/05 02:45:08;;;;;;;4.65;3.83;;;;;;;16.89;100.00;99355.72;5094313;28;20089;-86
2023/09/05 02:47:34;;;;;;;9.32;5.43;;;;;;;16.80;100.00;99341.09;5079654;28;20042;-86
2023/09/05 02:49:59;;;;;;;7.13;4.68;;;;;;;17.12;100.00;99350.06;5093440;28;20111;-86
2023/09/05 02:52:25;;;;;;;4.93;4.00;;;;;;;17.36;100.00;99362.06;5074828;28;20508;-86
2023/09/05 02:54:51;;;;;;;5.80;5.00;;;;;;;17.27;100.00;99350.25;5075229;28;20116;-86
2023/09/05 02:57:16;;;;;;;6.60;4.47;;;;;;;17.22;100.00;99353.41;5074603;28;20103;-86
2023/09/05 02:59:42;;;;;;;6.47;4.82;;;;;;;16.98;100.00;99330.84;5074866;28;20024;-86
2023/09/05 03:02:07;;;;;;;4.60;4.10;;;;;;;17.21;100.00;99344.09;5077589;28;20065;-86
2023/09/05 03:04:33;;;;;;;6.65;4.63;;;;;;;17.16;100.00;99335.97;5094939;28;20035;-86
2023/09/05 03:07:02;;;;;;;6.00;4.90;;;;;;;17.40;100.00;99365.75;5094554;28;20026;-86
2023/09/05 03:09:29;;;;;;;7.88;4.88;;;;;;;17.40;100.00;99350.81;5113360;28;20095;-86
2023/09/05 03:11:55;;;;;;;4.88;4.38;;;;;;;17.60;100.00;99367.59;5112603;28;20035;-86
2023/09/05 03:14:21;;;;;;;6.63;4.60;;;;;;;17.67;100.00;99373.34;5113093;28;20035;-86
2023/09/05 03:16:46;;;;;;;10.60;4.88;;;;;;;17.64;100.00;99376.97;5091393;28;20532;-86
2023/09/05 03:19:13;;;;;;;7.35;4.50;;;;;;;17.74;100.00;99387.59;5094829;28;20234;-86
2023/09/05 03:21:39;;;;;;;9.02;4.68;;;;;;;17.61;100.00;99366.41;5094612;28;20488;-86
2023/09/05 03:24:04;;;;;;;9.30;5.75;;;;;;;17.80;100.00;99379.56;5082857;28;20038;-86
2023/09/05 03:26:30;;;;;;;5.85;5.25;;;;;;;17.61;100.00;99374.88;5074373;28;20055;-86
2023/09/05 03:28:56;;;;;;;6.95;5.65;;;;;;;17.61;100.00;99374.88;5084397;28;20087;-86
2023/09/05 03:31:23;;;;;;;5.95;5.10;;;;;;;17.51;100.00;99371.56;5099795;28;20085;-86
2023/09/05 03:33:50;;;;;;;7.47;5.40;;;;;;;17.61;100.00;99366.41;5081412;28;20035;-86
2023/09/05 03:36:16;;;;;;;7.63;5.97;;;;;;;17.64;100.00;99385.44;5082988;28;20109;-86
2023/09/05 03:38:42;;;;;;;9.63;5.32;;;;;;;17.69;100.00;99387.91;5085441;28;20027;-86
2023/09/05 03:41:08;;;;;;;6.93;4.88;;;;;;;17.64;100.00;99372.09;5085756;28;20026;-86
2023/09/05 03:43:34;;;;;;;5.70;4.38;;;;;;;17.67;100.00;99388.28;5090434;28;20471;-86
2023/09/05 03:46:00;;;;;;;8.18;5.40;;;;;;;17.77;100.00;99383.97;5073996;28;20016;-85
2023/09/05 03:48:26;;;;;;;6.60;4.82;;;;;;;17.73;100.00;99368.97;5074140;28;20024;-85
2023/09/05 03:50:51;;;;;;;6.50;4.80;;;;;;;17.87;100.00;99373.19;5073375;28;20408;-86
2023/09/05 03:53:17;;;;;;;7.03;4.00;;;;;;;17.69;100.00;99365.28;5073442;28;20076;-85
2023/09/05 03:55:43;;;;;;;6.13;4.22;;;;;;;17.70;100.00;99360.47;5091748;28;20102;-84
2023/09/05 03:58:08;;;;;;;12.18;4.70;;;;;;;17.90;100.00;99389.38;5084829;28;20031;-85
2023/09/05 04:00:34;;;;;;;11.85;4.20;;;;;;;17.97;100.00;99389.44;5075292;28;20028;-85
2023/09/05 04:03:02;;;;;;;5.63;4.43;;;;;;;18.02;100.00;99380.63;5098338;28;20434;-85
2023/09/05 04:05:28;;;;;;;5.88;3.95;;;;;;;18.03;100.00;99387.09;5082329;28;20019;-85
2023/09/05 04:07:54;;;;;;;7.95;4.47;;;;;;;17.97;100.00;99389.44;5093634;28;20564;-85
2023/09/05 04:10:20;;;;;;;9.45;4.80;;;;;;;17.72;100.00;99389.97;5080573;28;20059;-86
2023/09/05 04:12:45;;;;;;;7.22;4.57;;;;;;;17.54;100.00;99372.78;5091429;28;20038;-86
2023/09/05 04:15:11;;;;;;;6.35;4.25;;;;;;;17.34;100.00;99372.13;5112093;28;20407;-85
2023/09/05 04:17:37;;;;;;;7.00;4.55;;;;;;;17.47;100.00;99396.13;5090884;28;20035;-85
2023/09/05 04:20:06;;;;;;;5.32;4.45;;;;;;;17.46;100.00;99405.81;5090380;28;20579;-85
2023/09/05 04:22:32;;;;;;;5.27;4.13;;;;;;;17.58;100.00;99401.94;5089817;28;20487;-85
2023/09/05 04:24:57;;;;;;;5.70;4.13;;;;;;;17.71;100.00;99404.50;5111966;28;20033;-85
2023/09/05 04:27:23;;;;;;;5.07;4.28;;;;;;;17.63;100.00;99397.97;5079536;28;20016;-85
2023/09/05 04:29:51;;;;;;;6.90;4.10;;;;;;;17.75;100.00;99406.19;5074843;28;20542;-85
2023/09/05 04:32:18;;;;;;;9.52;3.58;;;;;;;17.69;100.00;99376.59;5091145;28;20483;-86
2023/09/05 04:34:44;;;;;;;4.43;3.80;;;;;;;17.71;100.00;99382.69;5076855;28;20039;-85
2023/09/05 04:37:09;;;;;;;4.10;3.70;;;;;;;17.88;100.00;99405.94;5087766;28;20420;-85
2023/09/05 04:39:37;;;;;;;6.53;3.65;;;;;;;17.89;100.00;99399.88;5079365;28;20062;-85
2023/09/05 04:42:05;;;;;;;5.55;3.90;;;;;;;17.82;100.00;99394.94;5076364;28;20366;-85
2023/09/05 04:44:32;;;;;;;7.25;5.43;;;;;;;17.80;100.00;99394.50;5073354;28;20023;-84
2023/09/05 04:47:23;;;;;;;6.45;4.10;;;;;;;17.90;100.00;99409.97;5078067;28;20019;-85
2023/09/05 04:49:54;;;;;;;8.65;3.97;;;;;;;17.77;100.00;99388.81;5077335;28;20741;-83
2023/09/05 04:52:21;;;;;;;21.17;5.00;;;;;;;17.88;100.00;99403.91;5085901;28;20110;-84
2023/09/05 04:54:47;;;;;;;8.55;4.68;;;;;;;17.80;100.00;99410.69;5075788;28;20024;-84
2023/09/05 04:57:14;;;;;;;8.55;4.10;;;;;;;17.84;100.00;99405.88;5074128;28;20049;-85
2023/09/05 04:59:43;;;;;;;6.38;4.20;;;;;;;17.67;100.00;99398.81;5095194;28;20132;-85
2023/09/05 05:02:09;;;;;;;10.75;4.43;;;;;;;17.58;100.00;99404.75;5097494;28;20020;-85
2023/09/05 05:04:37;;;;;;;5.57;4.10;;;;;;;17.57;100.00;99410.78;5097400;28;20031;-84
2023/09/05 05:07:03;;;;;;;5.85;4.32;;;;;;;17.44;100.00;99387.63;5097455;28;20030;-85
2023/09/05 05:09:28;;;;;;;5.10;4.13;;;;;;;17.57;100.00;99399.47;5107871;28;20027;-85
2023/09/05 05:11:55;;;;;;;5.20;3.95;;;;;;;17.40;100.00;99384.75;5115585;28;20103;-84
2023/09/05 05:14:21;;;;;;;8.05;4.40;;;;;;;17.39;100.00;99385.94;5094950;28;20024;-84
2023/09/05 05:16:46;;;;;;;6.05;4.28;;;;;;;17.49;100.00;99405.03;5097284;28;20524;-84
2023/09/05 05:19:12;;;;;;;7.05;4.57;;;;;;;17.54;100.00;99407.53;5096086;28;20389;-84
2023/09/05 05:21:38;;;;;;;5.22;4.38;;;;;;;17.52;100.00;99384.50;5096609;28;20028;-84
2023/09/05 05:24:06;;;;;;;9.68;5.18;;;;;;;17.64;100.00;99391.09;5097355;28;20510;-84
2023/09/05 05:26:46;;;;;;;18.40;5.43;;;;;;;17.48;100.00;99366.66;5094555;28;20411;-84
2023/09/05 05:29:12;;;;;;;6.10;5.05;;;;;;;17.25;100.00;99367.59;5078778;28;20043;-84
2023/09/05 05:31:39;;;;;;;10.98;4.97;;;;;;;17.53;100.00;99383.28;5084121;28;20024;-84
2023/09/05 05:34:05;;;;;;;8.25;4.65;;;;;;;17.72;100.00;99400.47;5085966;28;20042;-84
2023/09/05 05:36:31;;;;;;;7.25;4.53;;;;;;;17.53;100.00;99397.44;5072595;28;20477;-83
2023/09/05 05:38:59;;;;;;;7.15;4.15;;;;;;;17.38;100.00;99396.41;5072873;28;20024;-83
2023/09/05 05:41:26;;;;;;;10.63;4.75;;;;;;;17.63;100.00;99403.63;5087839;28;20543;-83
2023/09/05 05:43:51;;;;;;;11.27;5.55;;;;;;;17.79;100.00;99400.56;5096425;28;20028;-83
2023/09/05 05:46:20;;;;;;;4.90;4.30;;;;;;;17.67;100.00;99398.81;5080182;28;20027;-84
2023/09/05 05:48:46;;;;;;;4.38;3.97;;;;;;;17.80;100.00;99402.22;5080013;28;20200;-84
2023/09/05 05:51:13;;;;;;;5.63;4.20;;;;;;;17.92;100.00;99404.78;5075684;28;20484;-83
2023/09/05 05:53:39;;;;;;;10.63;4.95;;;;;;;18.08;100.00;99413.03;5075173;28;20080;-82
2023/09/05 05:56:05;;;;;;;7.30;5.05;;;;;;;18.04;100.00;99400.88;5078771;28;20062;-81
2023/09/05 05:58:31;;;;;;;15.05;5.00;;;;;;;18.18;100.00;99413.53;5073378;28;20495;-80
2023/09/05 06:00:57;;;;;;;10.13;5.57;;;;;;;18.20;100.00;99413.97;5099704;28;20038;-80
2023/09/05 06:03:23;;;;;;;12.70;6.90;;;;;;;18.17;100.00;99417.56;5095681;27;20553;-81
2023/09/05 06:05:50;;;;;;;8.57;5.50;;;;;;;18.24;100.00;99420.50;5097740;28;20024;-80
2023/09/05 06:08:16;;;;;;;7.68;5.60;;;;;;;18.16;100.00;99419.63;5084916;28;20020;-81
2023/09/05 06:10:42;;;;;;;17.17;6.00;;;;;;;18.13;100.00;99419.56;5083818;28;20106;-82
2023/09/05 06:13:08;;;;;;;10.10;5.90;;;;;;;18.09;100.00;99422.34;5080028;28;20241;-83
2023/09/05 06:15:35;;;;;;;10.13;5.65;;;;;;;18.14;100.00;99422.00;5101057;28;20114;-82
2023/09/05 06:18:01;;;;;;;9.30;5.63;;;;;;;18.10;100.00;99429.63;5078627;28;20085;-82
2023/09/05 06:20:28;;;;;;;13.93;6.15;;;;;;;18.12;100.00;99423.59;5074150;28;20453;-83
2023/09/05 06:22:54;;;;;;;8.73;6.20;;;;;;;17.95;100.00;99423.78;5078069;28;20458;-82
2023/09/05 06:25:20;;;;;;;9.75;6.00;;;;;;;18.03;100.00;99438.03;5077583;28;20488;-85
2023/09/05 06:27:46;;;;;;;11.75;5.90;;;;;;;17.90;100.00;99437.47;5074915;28;20020;-83
2023/09/05 06:30:13;;;;;;;6.20;5.60;;;;;;;17.85;100.00;99429.31;5080433;28;20055;-83
2023/09/05 06:32:39;;;;;;;9.65;6.43;;;;;;;17.80;100.00;99425.63;5081866;28;20039;-84
2023/09/05 06:35:05;;;;;;;6.50;5.78;;;;;;;17.99;100.00;99448.47;5098064;28;20484;-83
2023/09/05 06:37:33;;;;;;;8.80;6.38;;;;;;;17.97;100.00;99440.38;5082867;28;20104;-84
2023/09/05 06:40:00;;;;;;;9.10;7.07;;;;;;;18.05;100.00;99450.59;5084912;28;20020;-84
2023/09/05 06:42:26;;;;;;;8.32;6.43;;;;;;;18.11;100.00;99470.88;5066385;28;20032;-83
2023/09/05 06:44:52;;;;;;;7.15;6.28;;;;;;;18.07;100.00;99482.16;5074217;28;20405;-83
2023/09/05 06:47:17;;;;;;;9.85;6.40;;;;;;;18.06;100.00;99486.19;5075671;28;20024;-84
2023/09/05 06:49:43;;;;;;;7.00;5.95;;;;;;;18.06;100.00;99476.91;5075737;28;20055;-83
2023/09/05 06:52:09;;;;;;;20.52;6.90;;;;;;;18.19;100.00;99489.59;5075258;28;20016;-83
2023/09/05 06:54:35;;;;;;;6.65;5.93;;;;;;;18.14;100.00;99486.28;5074127;28;20032;-83
2023/09/05 06:57:00;;;;;;;10.35;6.25;;;;;;;18.19;100.00;99506.56;5073825;28;20542;-83
2023/09/05 06:59:26;;;;;;;12.23;6.78;;;;;;;18.03;100.00;99498.28;5077292;28;20031;-82
2023/09/05 07:01:52;;;;;;;15.57;7.00;;;;;;;18.33;100.00;99513.59;5091715;28;20046;-83
2023/09/05 07:04:17;;;;;;;17.13;7.93;;;;;;;18.23;100.00;99495.28;5090472;28;20088;-83
2023/09/05 07:06:43;;;;;;;12.70;7.25;;;;;;;18.29;100.00;99507.88;5083060;28;20424;-84
2023/09/05 07:09:08;;;;;;;15.23;7.50;;;;;;;18.10;100.00;99508.88;5073937;28;20114;-84
2023/09/05 07:11:34;;;;;;;17.95;7.88;;;;;;;18.29;100.00;99522.03;5095200;28;20027;-84
2023/09/05 07:14:00;;;;;;;20.52;7.90;;;;;;;18.39;100.00;99526.19;5074973;28;20030;-83
2023/09/05 07:16:25;;;;;;;18.08;6.97;;;;;;;18.39;100.00;99523.34;5073568;28;20039;-84
2023/09/05 07:18:51;;;;;;;25.50;7.45;;;;;;;18.31;100.00;99511.16;5099255;28;20548;-83
2023/09/05 07:21:17;;;;;;;14.88;7.22;;;;;;;18.41;100.00;99537.13;5081247;28;20145;-83
2023/09/05 07:23:43;;;;;;;10.00;6.90;;;;;;;18.42;100.00;99521.78;5077553;28;20111;-83
2023/09/05 07:26:08;;;;;;;11.60;7.53;;;;;;;18.35;100.00;99533.84;5083570;28;20061;-84
2023/09/05 07:28:34;;;;;;;19.83;8.20;;;;;;;18.30;100.00;99537.81;5072778;28;20450;-83
2023/09/05 07:31:00;;;;;;;13.50;7.47;;;;;;;18.04;100.00;99533.88;5092731;28;20031;-82
2023/09/05 07:33:26;;;;;;;11.50;7.60;;;;;;;17.97;100.00;99533.75;5074337;28;20039;-84
2023/09/05 07:35:52;;;;;;;9.13;6.85;;;;;;;18.10;100.00;99540.00;5069457;28;20032;-85
2023/09/05 07:38:20;;;;;;;9.88;6.93;;;;;;;18.09;100.00;99538.38;5074136;28;20052;-82
2023/09/05 07:40:59;;;;;;;14.02;7.82;;;;;;;17.97;100.00;99547.88;5071278;28;20024;-85
2023/09/05 07:43:25;;;;;;;10.82;6.93;;;;;;;17.99;100.00;99533.38;5074540;28;20032;-84
2023/09/05 07:45:50;;;;;;;7.80;6.53;;;;;;;17.91;100.00;99540.94;5069684;28;20057;-85
2023/09/05 07:48:16;;;;;;;14.35;8.13;;;;;;;17.95;100.00;99551.13;5091110;28;20036;-85
2023/09/05 07:50:41;;;;;;;9.57;7.85;;;;;;;17.86;100.00;99546.94;5088877;28;20039;-84
2023/09/05 07:53:07;;;;;;;11.32;7.43;;;;;;;17.91;100.00;99552.25;5088821;28;20522;-84
2023/09/05 07:55:32;;;;;;;11.68;8.05;;;;;;;17.71;100.00;99529.75;5089934;28;20547;-84
2023/09/05 07:57:58;;;;;;;9.32;7.97;;;;;;;17.76;100.00;99539.94;5090246;28;20420;-84
2023/09/05 08:00:27;;;;;;;12.45;8.88;;;;;;;17.71;100.00;99529.75;5086155;28;20511;-83
2023/09/05 08:02:52;;;;;;;12.38;8.52;;;;;;;17.66;100.00;99539.38;5069085;28;20035;-84
2023/09/05 08:05:19;;;;;;;9.77;8.68;;;;;;;17.49;100.00;99509.66;5070116;28;20408;-84
2023/09/05 08:07:45;;;;;;;12.00;8.45;;;;;;;17.75;100.00;99549.63;5070060;28;20020;-84
2023/09/05 08:10:11;;;;;;;14.30;9.43;;;;;;;17.73;100.00;99537.88;5085781;28;20031;-82
2023/09/05 08:12:36;;;;;;;11.68;9.20;;;;;;;17.94;100.00;99541.00;5088181;28;20023;-81
2023/09/05 08:15:03;;;;;;;10.30;8.40;;;;;;;18.03;100.00;99546.41;5084041;28;20017;-82
2023/09/05 08:17:30;;;;;;;10.98;8.50;;;;;;;17.79;100.00;99517.34;5069227;28;20027;-82
2023/09/05 08:19:56;;;;;;;16.73;8.77;;;;;;;17.82;100.00;99518.59;5069322;28;20021;-83
2023/09/05 08:22:21;;;;;;;9.27;7.88;;;;;;;17.84;100.00;99527.53;5070161;28;20077;-82
2023/09/05 08:24:47;;;;;;;10.80;8.10;;;;;;;17.74;100.00;99537.50;5067512;28;20024;-81
2023/09/05 08:27:13;;;;;;;12.80;8.10;;;;;;;17.48;100.00;99502.38;5072269;28;20460;-82
2023/09/05 08:29:39;;;;;;;12.48;8.90;;;;;;;17.70;100.00;99525.31;5068509;28;20020;-81
2023/09/05 08:32:04;;;;;;;9.68;8.35;;;;;;;17.87;100.00;99521.09;5068698;28;20066;-81
2023/09/05 08:34:30;;;;;;;9.73;8.73;;;;;;;17.85;100.00;99525.50;5070668;28;20025;-81
2023/09/05 08:36:58;;;;;;;12.40;9.57;;;;;;;17.78;100.00;99518.56;5073241;28;20041;-82
2023/09/05 08:39:23;;;;;;;11.88;8.93;;;;;;;17.99;100.00;99533.38;5072274;28;20052;-82
2023/09/05 08:41:49;;;;;;;9.13;8.23;;;;;;;18.10;100.00;99528.69;5068658;28;20058;-82
2023/09/05 08:44:15;;;;;;;10.48;9.18;;;;;;;18.21;100.00;99525.97;5068851;28;20454;-81
2023/09/05 08:46:42;;;;;;;9.75;8.30;;;;;;;18.25;100.00;99515.53;5071776;28;20016;-82
2023/09/05 08:49:07;;;;;;;10.05;7.90;;;;;;;18.56;100.00;99527.59;5075554;28;20024;-82
2023/09/05 08:51:38;;;;;;;9.80;7.95;;;;;;;18.62;100.00;99519.56;5079346;28;20107;-82
2023/09/05 08:54:06;;;;;;;11.77;8.57;;;;;;;18.77;100.00;99529.03;5071045;28;20500;-82
2023/09/05 08:56:32;;;;;;;15.48;8.23;;;;;;;18.89;100.00;99520.22;5078751;28;20025;-83
2023/09/05 08:59:01;;;;;;;11.40;7.75;;;;;;;19.17;100.00;99520.91;5082245;28;20046;-83
2023/09/05 09:01:29;;;;;;;10.68;8.07;;;;;;;19.05;100.00;99507.84;5069360;28;20035;-82
2023/09/05 09:03:55;;;;;;;10.98;9.05;;;;;;;19.16;100.00;99517.25;5069542;28;20036;-83
2023/09/05 09:06:25;;;;;;;9.45;7.97;;;;;;;19.40;100.00;99523.50;5073891;28;20107;-83
2023/09/05 09:08:52;;;;;;;9.68;7.72;;;;;;;19.52;100.00;99527.22;5076086;28;20032;-83
2023/09/05 09:11:21;;;;;;;8.85;7.95;;;;;;;19.46;100.00;99507.75;5070641;28;20040;-84
2023/09/05 09:13:51;;;;;;;9.98;8.98;;;;;;;19.47;99.96;99522.72;5082122;28;20502;-83
2023/09/05 09:16:18;;;;;;;16.00;9.43;;;;;;;19.57;99.12;99524.03;5083925;28;20468;-83
2023/09/05 09:18:58;;;;;;;12.57;8.52;;;;;;;19.60;98.54;99526.88;5081406;28;20032;-84
2023/09/05 09:21:25;;;;;;;14.48;9.10;;;;;;;19.72;96.46;99534.25;5071354;28;20039;-85
2023/09/05 09:23:51;;;;;;;12.63;9.07;;;;;;;19.74;94.74;99539.53;5077206;28;20028;-85
2023/09/05 09:26:16;;;;;;;8.57;7.78;;;;;;;19.58;91.79;99534.16;5074008;28;20082;-85
2023/09/05 09:28:42;;;;;;;9.80;8.80;;;;;;;19.74;93.12;99550.88;5069996;28;20063;-84
2023/09/05 09:31:12;;;;;;;12.45;9.45;;;;;;;19.90;94.52;99551.38;5069783;28;20551;-85
2023/09/05 09:33:39;;;;;;;9.70;8.43;;;;;;;19.63;89.07;99530.94;5063784;28;20424;-85
2023/09/05 09:36:09;;;;;;;12.45;9.50;;;;;;;19.62;89.47;99532.16;5079915;28;20159;-85
2023/09/05 09:38:35;;;;;;;;;;;;;;;19.80;90.80;99545.66;5078696;28;20046;-86
2023/09/05 09:41:03;;;;;;;11.27;8.75;;;;;;;19.62;88.00;99524.47;5075122;28;20063;-84
2023/09/05 09:43:30;;;;;;;12.43;8.98;;;;;;;19.53;89.14;99523.19;5074932;28;20059;-84
2023/09/05 09:45:57;;;;;;;10.73;9.32;;;;;;;19.84;88.90;99549.31;5081806;28;20034;-85
2023/09/05 09:48:26;;;;;;;10.10;9.10;;;;;;;20.09;89.56;99562.84;5099023;28;20106;-85
2023/09/05 09:50:54;;;;;;;10.68;9.10;;;;;;;20.13;87.22;99556.00;5081658;28;20423;-85
2023/09/05 09:53:38;;;;;;;12.35;9.35;;;;;;;20.11;87.35;99561.25;5084123;28;20126;-85
2023/09/05 09:56:13;;;;;;;9.80;8.80;;;;;;;20.17;87.03;99553.16;5085443;28;20012;-86
2023/09/05 09:58:44;;;;;;;11.27;8.20;;;;;;;20.26;88.61;99562.13;5083892;28;20026;-86
2023/09/05 10:01:11;;;;;;;11.43;10.23;;;;;;;20.16;87.49;99557.22;5082032;28;20016;-87
2023/09/05 10:03:42;;;;;;;9.07;8.18;;;;;;;20.24;85.27;99561.69;5079030;28;20020;-86
2023/09/05 10:06:09;;;;;;;10.90;7.65;;;;;;;20.25;82.92;99571.06;5078118;28;20024;-85
2023/09/05 10:08:35;;;;;;;11.15;8.55;;;;;;;20.16;84.34;99569.38;5082166;28;20056;-86
2023/09/05 10:11:02;;;;;;;15.55;9.15;;;;;;;20.14;84.09;99565.31;5074997;28;20051;-85
2023/09/05 10:13:32;;;;;;;15.40;8.65;;;;;;;20.10;83.86;99558.81;5076356;27;20489;-87
2023/09/05 10:16:01;;;;;;;13.30;8.48;;;;;;;20.44;84.14;99584.09;5100569;28;20028;-86
2023/09/05 10:18:28;;;;;;;10.55;9.05;;;;;;;20.43;82.32;99573.97;5078000;28;20614;-86
2023/09/05 10:20:56;;;;;;;10.00;8.95;;;;;;;20.48;81.40;99587.75;5084544;28;20545;-85
2023/09/05 10:23:23;;;;;;;11.20;9.38;;;;;;;20.52;83.46;99567.91;5074745;28;20476;-85
2023/09/05 10:25:50;;;;;;;10.13;9.13;;;;;;;20.68;82.59;99576.88;5102138;28;20020;-87
2023/09/05 10:28:15;;;;;;;10.40;9.30;;;;;;;20.94;82.26;99586.31;5080546;28;20110;-85
2023/09/05 10:30:45;;;;;;;12.38;8.57;;;;;;;21.12;78.57;99576.97;5080006;28;21399;-84
2023/09/05 10:33:14;;;;;;;10.55;9.45;;;;;;;21.16;78.35;99592.84;5075922;28;20113;-85
2023/09/05 10:35:46;;;;;;;11.30;8.52;;;;;;;21.23;77.31;99588.34;5074297;28;20593;-85
2023/09/05 10:38:15;;;;;;;10.25;8.02;;;;;;;20.90;75.42;99577.78;5075157;28;20028;-84
2023/09/05 10:40:40;;;;;;;14.30;8.30;;;;;;;21.18;75.98;99547.72;5075469;28;20027;-85
2023/09/05 10:43:14;;;;;;;9.40;8.18;;;;;;;21.37;76.94;99559.94;5091019;28;20629;-86
2023/09/05 10:45:40;;;;;;;8.90;8.05;;;;;;;21.64;76.47;99559.50;5076404;28;20032;-85
2023/09/05 10:48:11;;;;;;;11.65;8.70;;;;;;;21.97;76.24;99591.59;5074893;28;20084;-85
2023/09/05 10:51:10;;;;;;;11.65;8.63;;;;;;;21.97;72.14;99590.78;5058771;28;20069;-85
2023/09/05 10:53:44;;;;;;;10.27;9.13;;;;;;;21.95;74.69;99559.84;5073318;28;20448;-85
2023/09/05 10:56:43;;;;;;;11.85;8.00;;;;;;;22.13;72.30;99576.09;5078934;28;20032;-84
2023/09/05 10:59:10;;;;;;;11.60;8.50;;;;;;;22.31;71.33;99587.41;5089536;28;20495;-84
2023/09/05 11:01:36;;;;;;;9.15;8.25;;;;;;;22.46;68.73;99579.63;5097777;28;20588;-85
2023/09/05 11:04:07;;;;;;;9.35;8.45;;;;;;;22.19;68.86;99582.16;5082517;28;20126;-84
2023/09/05 11:06:43;;;;;;;9.30;7.78;;;;;;;22.55;69.62;99590.59;5085939;28;20024;-84
2023/09/05 11:09:08;;;;;;;9.77;8.80;;;;;;;22.93;69.82;99587.13;5077561;28;20051;-84
2023/09/05 11:11:40;;;;;;;11.70;7.85;;;;;;;23.13;68.66;99570.28;5078751;28;20496;-86
2023/09/05 11:14:11;;;;;;;10.50;7.82;;;;;;;23.10;66.55;99579.66;5076065;28;20027;-85
2023/09/05 11:16:49;;;;;;;15.43;8.35;;;;;;;23.24;68.23;99567.34;5071796;28;20086;-86
2023/09/05 11:19:45;;;;;;;8.57;7.22;;;;;;;23.42;65.53;99587.19;5075660;28;20491;-85
2023/09/05 11:22:14;;;;;;;11.55;7.95;;;;;;;23.25;64.98;99581.19;5076330;28;20019;-86
2023/09/05 11:24:46;;;;;;;9.25;7.97;;;;;;;23.24;66.40;99570.19;5072942;28;20020;-85